createdAt,value
2023-05-14T00:00:53.363Z,10.5192
2023-05-14T00:01:54.363Z,10.5570
2023-05-14T00:02:55.547Z,10.5352
2023-05-14T00:03:56.522Z,10.5798
2023-05-14T00:04:57.548Z,10.5932
2023-05-14T00:05:58.514Z,10.5638
2023-05-14T00:06:59.546Z,10.5593
2023-05-14T00:08:00.577Z,10.5570
2023-05-14T00:09:01.601Z,10.5182
2023-05-14T00:10:02.710Z,10.4818
2023-05-14T00:11:03.711Z,10.5005
2023-05-14T00:12:04.722Z,10.5268
2023-05-14T00:13:05.755Z,10.5451
2023-05-14T00:14:06.804Z,10.5354
2023-05-14T00:15:07.883Z,10.5063
2023-05-14T00:16:08.982Z,10.5396
2023-05-14T00:17:09.904Z,10.5568
2023-05-14T00:18:10.981Z,10.5771
2023-05-14T00:19:12.044Z,10.5190
2023-05-14T00:20:13.068Z,10.4769
2023-05-14T00:21:14.073Z,10.4377
2023-05-14T00:22:15.101Z,10.4629
2023-05-14T00:23:16.121Z,10.4584
2023-05-14T00:24:17.159Z,10.4625
2023-05-14T00:25:18.208Z,10.4412
2023-05-14T00:26:19.272Z,10.4605
2023-05-14T00:27:20.248Z,10.4011
2023-05-14T00:28:21.273Z,10.3452
2023-05-14T00:29:22.315Z,10.3136
2023-05-14T00:30:23.592Z,10.3290
2023-05-14T00:31:24.457Z,10.3491
2023-05-14T00:32:25.583Z,10.3362
2023-05-14T00:33:26.500Z,10.3208
2023-05-14T00:34:27.547Z,10.3325
2023-05-14T00:35:28.599Z,10.3526
2023-05-14T00:36:29.661Z,10.3526
2023-05-14T00:37:30.638Z,10.3148
2023-05-14T00:38:31.677Z,10.2850
2023-05-14T00:39:32.711Z,10.2664
2023-05-14T00:40:33.782Z,10.2779
2023-05-14T00:41:34.883Z,10.2713
2023-05-14T00:42:35.895Z,10.3072
2023-05-14T00:43:36.905Z,10.3130
2023-05-14T00:44:37.955Z,10.2830
2023-05-14T00:45:38.934Z,10.2768
2023-05-14T00:46:40.066Z,10.2774
2023-05-14T00:47:41.141Z,10.2392
2023-05-14T00:48:42.079Z,10.1856
2023-05-14T00:49:43.077Z,10.1573
2023-05-14T00:50:44.156Z,10.2078
2023-05-14T00:51:45.186Z,10.1585
2023-05-14T00:52:46.228Z,10.1542
2023-05-14T00:53:47.221Z,10.1550
2023-05-14T00:54:48.316Z,10.1854
2023-05-14T00:55:49.321Z,10.1240
2023-05-14T00:56:50.363Z,10.1187
2023-05-14T00:57:51.472Z,10.1702
2023-05-14T00:58:52.425Z,10.1369
2023-05-14T00:59:53.458Z,10.1185
2023-05-14T01:00:54.586Z,10.0924
2023-05-14T01:01:55.563Z,10.1000
2023-05-14T01:02:56.673Z,10.0936
2023-05-14T01:03:57.872Z,10.1291
2023-05-14T01:04:58.704Z,10.0786
2023-05-14T01:05:59.680Z,10.1082
2023-05-14T01:07:00.767Z,10.1063
2023-05-14T01:08:01.821Z,10.0967
2023-05-14T01:09:02.855Z,10.0558
2023-05-14T01:10:03.847Z,10.0624
2023-05-14T01:11:04.894Z,10.0881
2023-05-14T01:12:05.931Z,10.0690
2023-05-14T01:13:07.021Z,10.0314
2023-05-14T01:14:08.039Z,10.0462
2023-05-14T01:15:09.167Z,10.0486
2023-05-14T01:16:10.172Z,10.0451
2023-05-14T01:17:11.202Z,10.0310
2023-05-14T01:18:12.278Z,10.0373
2023-05-14T01:19:13.390Z,10.0400
2023-05-14T01:20:14.279Z,10.0507
2023-05-14T01:21:15.339Z,10.0753
2023-05-14T01:22:16.361Z,10.0946
2023-05-14T01:23:17.435Z,10.0618
2023-05-14T01:24:18.474Z,10.0712
2023-05-14T01:25:19.554Z,10.0262
2023-05-14T01:26:20.554Z,10.0014
2023-05-14T01:27:21.671Z,10.0240
2023-05-14T01:28:22.753Z,10.0644
2023-05-14T01:29:23.789Z,10.0614
2023-05-14T01:30:25.024Z,10.0102
2023-05-14T01:31:25.800Z,9.9876
2023-05-14T01:32:26.919Z,10.0320
2023-05-14T01:33:27.878Z,10.0145
2023-05-14T01:34:29.031Z,10.0406
2023-05-14T01:35:30.036Z,10.0110
2023-05-14T01:36:31.068Z,9.9798
2023-05-14T01:37:32.013Z,9.9420
2023-05-14T01:38:33.054Z,9.9597
2023-05-14T01:39:34.150Z,9.9796
2023-05-14T01:40:35.256Z,10.0114
2023-05-14T01:41:36.173Z,10.0190
2023-05-14T01:42:37.228Z,9.9958
2023-05-14T01:43:38.260Z,9.9989
2023-05-14T01:44:39.321Z,9.9527
2023-05-14T01:45:40.368Z,9.9689
2023-05-14T01:46:41.381Z,9.9878
2023-05-14T01:47:42.415Z,9.9726
2023-05-14T01:48:43.467Z,9.9398
2023-05-14T01:49:44.497Z,9.9215
2023-05-14T01:50:45.586Z,9.9270
2023-05-14T01:51:46.545Z,9.9422
2023-05-14T01:52:47.651Z,9.9821
2023-05-14T01:53:48.626Z,9.9432
2023-05-14T01:54:49.746Z,9.9354
2023-05-14T01:55:50.773Z,9.9311
2023-05-14T01:56:51.732Z,9.9344
2023-05-14T01:57:52.792Z,9.9626
2023-05-14T01:58:53.852Z,9.9508
2023-05-14T01:59:54.946Z,9.8878
2023-05-14T02:00:55.932Z,9.8900
2023-05-14T02:01:57.128Z,9.8697
2023-05-14T02:02:58.023Z,9.8586
2023-05-14T02:03:59.098Z,9.8707
2023-05-14T02:05:00.109Z,9.8580
2023-05-14T02:06:01.169Z,9.8905
2023-05-14T02:07:02.091Z,9.8652
2023-05-14T02:08:03.180Z,9.8662
2023-05-14T02:09:04.276Z,9.9139
2023-05-14T02:10:05.304Z,9.9519
2023-05-14T02:11:06.384Z,9.9691
2023-05-14T02:12:07.388Z,9.9231
2023-05-14T02:13:08.335Z,9.9311
2023-05-14T02:14:09.436Z,9.9182
2023-05-14T02:15:10.496Z,9.8859
2023-05-14T02:16:11.534Z,9.8588
2023-05-14T02:17:12.488Z,9.9484
2023-05-14T02:18:13.599Z,9.9496
2023-05-14T02:19:14.666Z,9.9032
2023-05-14T02:20:15.807Z,9.9061
2023-05-14T02:21:16.695Z,9.9268
2023-05-14T02:22:17.708Z,9.9289
2023-05-14T02:23:20.594Z,9.9289
2023-05-14T02:24:19.800Z,9.8890
2023-05-14T02:25:20.881Z,9.8699
2023-05-14T02:26:21.946Z,9.9453
2023-05-14T02:27:22.907Z,9.8738
2023-05-14T02:28:23.989Z,9.9018
2023-05-14T02:29:24.991Z,9.8689
2023-05-14T02:30:26.126Z,9.7927
2023-05-14T02:31:27.173Z,9.8025
2023-05-14T02:32:28.348Z,9.7582
2023-05-14T02:33:29.203Z,9.7212
2023-05-14T02:34:30.170Z,9.7450
2023-05-14T02:35:31.280Z,9.7600
2023-05-14T02:36:32.291Z,9.7286
2023-05-14T02:37:33.253Z,9.7613
2023-05-14T02:38:34.352Z,9.7230
2023-05-14T02:39:35.348Z,9.7267
2023-05-14T02:40:36.469Z,9.7183
2023-05-14T02:41:37.517Z,9.7732
2023-05-14T02:42:38.520Z,9.8110
2023-05-14T02:43:39.496Z,9.8504
2023-05-14T02:44:40.655Z,9.8438
2023-05-14T02:45:41.621Z,9.8089
2023-05-14T02:46:42.745Z,9.8447
2023-05-14T02:47:43.750Z,9.7590
2023-05-14T02:48:44.773Z,9.7775
2023-05-14T02:49:45.739Z,9.7549
2023-05-14T02:50:46.834Z,9.7806
2023-05-14T02:51:47.853Z,9.7670
2023-05-14T02:52:48.860Z,9.7245
2023-05-14T02:53:49.911Z,9.7409
2023-05-14T02:54:50.919Z,9.7364
2023-05-14T02:55:52.059Z,9.7707
2023-05-14T02:56:53.062Z,9.7440
2023-05-14T02:57:54.153Z,9.7676
2023-05-14T02:58:55.109Z,9.7871
2023-05-14T02:59:56.114Z,9.8034
2023-05-14T03:00:57.224Z,9.7927
2023-05-14T03:01:58.341Z,9.7995
2023-05-14T03:02:59.259Z,9.8015
2023-05-14T03:04:00.305Z,9.8457
2023-05-14T03:05:01.295Z,9.8481
2023-05-14T03:06:02.435Z,9.8430
2023-05-14T03:07:03.436Z,9.8297
2023-05-14T03:08:04.416Z,9.7742
2023-05-14T03:09:05.477Z,9.8588
2023-05-14T03:10:06.470Z,9.8833
2023-05-14T03:11:07.546Z,9.8827
2023-05-14T03:12:08.728Z,9.8301
2023-05-14T03:13:09.614Z,9.8101
2023-05-14T03:14:10.634Z,9.8005
2023-05-14T03:15:11.696Z,9.7339
2023-05-14T03:16:12.755Z,9.6850
2023-05-14T03:17:13.813Z,9.6639
2023-05-14T03:18:14.790Z,9.6857
2023-05-14T03:19:15.885Z,9.6717
2023-05-14T03:20:16.839Z,9.6423
2023-05-14T03:21:17.987Z,9.6614
2023-05-14T03:22:18.976Z,9.6271
2023-05-14T03:23:20.017Z,9.6314
2023-05-14T03:24:20.971Z,9.5624
2023-05-14T03:25:22.030Z,9.5339
2023-05-14T03:26:23.108Z,9.5491
2023-05-14T03:27:24.149Z,9.5100
2023-05-14T03:28:25.134Z,9.5107
2023-05-14T03:29:26.147Z,9.5113
2023-05-14T03:30:27.285Z,9.4636
2023-05-14T03:31:28.281Z,9.4998
2023-05-14T03:32:29.360Z,9.4681
2023-05-14T03:33:30.310Z,9.4946
2023-05-14T03:34:31.355Z,9.4698
2023-05-14T03:35:32.378Z,9.4172
2023-05-14T03:36:33.496Z,9.4205
2023-05-14T03:37:34.506Z,9.3753
2023-05-14T03:38:35.592Z,9.3293
2023-05-14T03:39:36.548Z,9.2989
2023-05-14T03:40:37.669Z,9.3155
2023-05-14T03:41:38.648Z,9.3149
2023-05-14T03:42:39.793Z,9.2933
2023-05-14T03:43:40.720Z,9.3467
2023-05-14T03:44:41.713Z,9.3523
2023-05-14T03:45:42.828Z,9.3194
2023-05-14T03:46:43.843Z,9.3523
2023-05-14T03:47:44.869Z,9.3525
2023-05-14T03:48:45.915Z,9.3373
2023-05-14T03:49:46.894Z,9.3621
2023-05-14T03:50:48.027Z,9.3570
2023-05-14T03:51:49.019Z,9.3547
2023-05-14T03:52:50.075Z,9.3794
2023-05-14T03:53:51.055Z,9.3699
2023-05-14T03:54:52.093Z,9.3784
2023-05-14T03:55:53.112Z,9.3804
2023-05-14T03:56:54.276Z,9.4106
2023-05-14T03:57:55.273Z,9.4492
2023-05-14T03:58:56.266Z,9.4905
2023-05-14T03:59:57.268Z,9.5324
2023-05-14T04:00:58.349Z,9.5848
2023-05-14T04:01:59.393Z,9.6000
2023-05-14T04:03:00.607Z,9.6154
2023-05-14T04:04:01.616Z,9.6074
2023-05-14T04:05:02.454Z,9.5842
2023-05-14T04:06:03.578Z,9.6101
2023-05-14T04:07:04.582Z,9.6631
2023-05-14T04:08:05.647Z,9.6596
2023-05-14T04:09:06.598Z,9.6764
2023-05-14T04:10:07.686Z,9.6645
2023-05-14T04:11:08.710Z,9.6549
2023-05-14T04:12:09.780Z,9.6625
2023-05-14T04:13:10.909Z,9.6664
2023-05-14T04:14:11.807Z,9.7054
2023-05-14T04:15:12.924Z,9.6898
2023-05-14T04:16:14.024Z,9.7128
2023-05-14T04:17:14.979Z,9.7159
2023-05-14T04:18:16.073Z,9.6990
2023-05-14T04:19:17.151Z,9.7046
2023-05-14T04:20:18.021Z,9.7052
2023-05-14T04:21:19.057Z,9.6978
2023-05-14T04:22:20.156Z,9.7689
2023-05-14T04:23:21.216Z,9.7520
2023-05-14T04:24:22.206Z,9.7352
2023-05-14T04:25:23.225Z,9.7744
2023-05-14T04:26:24.349Z,9.7820
2023-05-14T04:27:25.351Z,9.8099
2023-05-14T04:28:26.391Z,9.8186
2023-05-14T04:29:27.422Z,9.7658
2023-05-14T04:30:28.434Z,9.7645
2023-05-14T04:31:29.591Z,9.7374
2023-05-14T04:32:30.642Z,9.8231
2023-05-14T04:33:31.587Z,9.8301
2023-05-14T04:34:32.665Z,9.8331
2023-05-14T04:35:33.710Z,9.8824
2023-05-14T04:36:34.664Z,9.8171
2023-05-14T04:37:35.786Z,9.8354
2023-05-14T04:38:36.836Z,9.8835
2023-05-14T04:39:37.784Z,9.8685
2023-05-14T04:40:38.824Z,9.9215
2023-05-14T04:41:39.872Z,9.9248
2023-05-14T04:42:40.981Z,9.9412
2023-05-14T04:43:41.985Z,9.9348
2023-05-14T04:44:42.986Z,9.9759
2023-05-14T04:45:44.068Z,10.0186
2023-05-14T04:46:45.076Z,10.0299
2023-05-14T04:47:46.225Z,10.0353
2023-05-14T04:48:47.229Z,10.0573
2023-05-14T04:49:48.141Z,10.0669
2023-05-14T04:50:49.188Z,10.0948
2023-05-14T04:51:50.228Z,10.1164
2023-05-14T04:52:51.352Z,10.1626
2023-05-14T04:53:52.382Z,10.1893
2023-05-14T04:54:53.358Z,10.1702
2023-05-14T04:55:54.383Z,10.1507
2023-05-14T04:56:55.421Z,10.2218
2023-05-14T04:57:56.502Z,10.2390
2023-05-14T04:58:57.533Z,10.3235
2023-05-14T04:59:58.548Z,10.3752
2023-05-14T05:00:59.714Z,10.4083
2023-05-14T05:02:00.629Z,10.3795
2023-05-14T05:03:01.800Z,10.3440
2023-05-14T05:04:02.764Z,10.2818
2023-05-14T05:05:03.742Z,10.3732
2023-05-14T05:06:04.800Z,10.3315
2023-05-14T05:07:05.869Z,10.2916
2023-05-14T05:08:06.947Z,10.2719
2023-05-14T05:09:07.939Z,10.2783
2023-05-14T05:10:08.995Z,10.2941
2023-05-14T05:11:10.014Z,10.2914
2023-05-14T05:12:11.024Z,10.3707
2023-05-14T05:13:12.090Z,10.4194
2023-05-14T05:14:13.149Z,10.4132
2023-05-14T05:15:14.215Z,10.4422
2023-05-14T05:16:15.325Z,10.4572
2023-05-14T05:17:16.289Z,10.4942
2023-05-14T05:18:17.360Z,10.4907
2023-05-14T05:19:19.730Z,10.5268
2023-05-14T05:20:19.392Z,10.5398
2023-05-14T05:21:20.421Z,10.5693
2023-05-14T05:22:21.510Z,10.5917
2023-05-14T05:23:22.552Z,10.5069
2023-05-14T05:24:23.590Z,10.4629
2023-05-14T05:25:24.552Z,10.5504
2023-05-14T05:26:25.617Z,10.5613
2023-05-14T05:27:26.658Z,10.5991
2023-05-14T05:28:27.757Z,10.6186
2023-05-14T05:29:28.841Z,10.5776
2023-05-14T05:30:29.793Z,10.5135
2023-05-14T05:31:30.854Z,10.5527
2023-05-14T05:32:31.936Z,10.5886
2023-05-14T05:33:32.973Z,10.6166
2023-05-14T05:34:34.036Z,10.6562
2023-05-14T05:35:34.952Z,10.6408
2023-05-14T05:36:35.997Z,10.7082
2023-05-14T05:37:37.038Z,10.7197
2023-05-14T05:38:38.161Z,10.7382
2023-05-14T05:39:39.179Z,10.7209
2023-05-14T05:40:40.183Z,10.8017
2023-05-14T05:41:41.205Z,10.7542
2023-05-14T05:42:42.233Z,10.6745
2023-05-14T05:43:43.297Z,10.7133
2023-05-14T05:44:44.386Z,10.7620
2023-05-14T05:45:45.352Z,10.8429
2023-05-14T05:46:46.498Z,10.8154
2023-05-14T05:47:47.531Z,10.8041
2023-05-14T05:48:48.492Z,10.6521
2023-05-14T05:49:49.580Z,10.5338
2023-05-14T05:50:50.547Z,10.5960
2023-05-14T05:51:51.653Z,10.7343
2023-05-14T05:52:52.638Z,10.7552
2023-05-14T05:53:53.704Z,10.7832
2023-05-14T05:54:54.730Z,10.9578
2023-05-14T05:55:55.746Z,11.0810
2023-05-14T05:56:56.870Z,11.0636
2023-05-14T05:57:57.847Z,11.0592
2023-05-14T05:58:58.938Z,11.0204
2023-05-14T05:59:59.996Z,11.0233
2023-05-14T06:01:00.957Z,11.0568
2023-05-14T06:02:02.028Z,10.8158
2023-05-14T06:03:03.113Z,10.6599
2023-05-14T06:04:04.086Z,10.7450
2023-05-14T06:05:05.138Z,10.8358
2023-05-14T06:06:06.099Z,10.8807
2023-05-14T06:07:07.234Z,10.8863
2023-05-14T06:08:08.190Z,10.9007
2023-05-14T06:09:09.260Z,10.8651
2023-05-14T06:10:10.283Z,10.7466
2023-05-14T06:11:11.299Z,10.7382
2023-05-14T06:12:12.299Z,10.7676
2023-05-14T06:13:13.404Z,10.7378
2023-05-14T06:14:14.541Z,10.7600
2023-05-14T06:15:15.532Z,10.6714
2023-05-14T06:16:16.537Z,10.6529
2023-05-14T06:17:17.560Z,10.7511
2023-05-14T06:18:18.592Z,10.7930
2023-05-14T06:19:19.711Z,10.8049
2023-05-14T06:20:20.816Z,10.8333
2023-05-14T06:21:21.670Z,10.8770
2023-05-14T06:22:22.746Z,10.7480
2023-05-14T06:23:23.758Z,10.6856
2023-05-14T06:24:24.878Z,10.7799
2023-05-14T06:25:25.920Z,10.7760
2023-05-14T06:26:26.969Z,10.7349
2023-05-14T06:27:27.921Z,10.7489
2023-05-14T06:28:29.014Z,10.7454
2023-05-14T06:29:30.073Z,10.6977
2023-05-14T06:30:31.001Z,10.6887
2023-05-14T06:31:32.013Z,10.7068
2023-05-14T06:32:33.045Z,10.7314
2023-05-14T06:33:34.082Z,10.7544
2023-05-14T06:34:35.183Z,10.7727
2023-05-14T06:35:36.153Z,10.8008
2023-05-14T06:36:37.193Z,10.8323
2023-05-14T06:37:38.217Z,10.9035
2023-05-14T06:38:39.273Z,10.8682
2023-05-14T06:39:40.299Z,10.8616
2023-05-14T06:40:41.382Z,10.8910
2023-05-14T06:41:42.354Z,10.8731
2023-05-14T06:42:43.420Z,10.8561
2023-05-14T06:43:44.433Z,10.8729
2023-05-14T06:44:45.542Z,10.9539
2023-05-14T06:45:46.541Z,10.8964
2023-05-14T06:46:47.564Z,10.9237
2023-05-14T06:47:48.619Z,10.8655
2023-05-14T06:48:49.693Z,10.8195
2023-05-14T06:49:50.714Z,10.7908
2023-05-14T06:50:51.771Z,10.7524
2023-05-14T06:51:52.806Z,10.7932
2023-05-14T06:52:53.831Z,10.7920
2023-05-14T06:53:54.838Z,10.7154
2023-05-14T06:54:55.879Z,10.7653
2023-05-14T06:55:56.939Z,10.8249
2023-05-14T06:56:58.009Z,10.8501
2023-05-14T06:57:59.006Z,10.7632
2023-05-14T06:59:00.054Z,10.8183
2023-05-14T07:00:03.262Z,10.8152
2023-05-14T07:01:02.172Z,10.8772
2023-05-14T07:02:03.189Z,10.8413
2023-05-14T07:03:04.237Z,10.7232
2023-05-14T07:04:05.237Z,10.6786
2023-05-14T07:05:06.273Z,10.6702
2023-05-14T07:06:07.323Z,10.6347
2023-05-14T07:07:08.374Z,10.6080
2023-05-14T07:08:09.373Z,10.6067
2023-05-14T07:09:10.416Z,10.5504
2023-05-14T07:10:11.427Z,10.6303
2023-05-14T07:11:12.517Z,10.6737
2023-05-14T07:12:13.516Z,10.6852
2023-05-14T07:13:14.550Z,10.7275
2023-05-14T07:14:15.576Z,10.7285
2023-05-14T07:15:16.640Z,10.7092
2023-05-14T07:16:17.709Z,10.6706
2023-05-14T07:17:18.854Z,10.6464
2023-05-14T07:18:19.712Z,10.7737
2023-05-14T07:19:20.771Z,10.7382
2023-05-14T07:20:22.031Z,10.6683
2023-05-14T07:21:22.905Z,10.6950
2023-05-14T07:22:23.879Z,10.7694
2023-05-14T07:23:24.933Z,10.7881
2023-05-14T07:24:25.947Z,10.9569
2023-05-14T07:25:26.995Z,10.8791
2023-05-14T07:26:28.041Z,11.0656
2023-05-14T07:27:29.078Z,11.0416
2023-05-14T07:28:30.114Z,11.1868
2023-05-14T07:29:31.115Z,11.2100
2023-05-14T07:30:32.210Z,11.3745
2023-05-14T07:31:33.270Z,11.5773
2023-05-14T07:32:34.283Z,11.5744
2023-05-14T07:33:35.278Z,11.6223
2023-05-14T07:34:36.324Z,11.5680
2023-05-14T07:35:37.314Z,11.7106
2023-05-14T07:36:38.410Z,11.5253
2023-05-14T07:37:39.433Z,11.5385
2023-05-14T07:38:40.456Z,11.8379
2023-05-14T07:39:41.488Z,11.8447
2023-05-14T07:40:42.528Z,11.6691
2023-05-14T07:41:43.641Z,11.8069
2023-05-14T07:42:44.626Z,11.8835
2023-05-14T07:43:45.606Z,12.0399
2023-05-14T07:44:46.651Z,12.1758
2023-05-14T07:45:47.695Z,12.0608
2023-05-14T07:46:48.772Z,12.5068
2023-05-14T07:47:49.803Z,12.5080
2023-05-14T07:48:50.818Z,12.6567
2023-05-14T07:49:51.816Z,12.6154
2023-05-14T07:50:52.860Z,12.6370
2023-05-14T07:51:53.877Z,12.6881
2023-05-14T07:52:55.026Z,12.9373
2023-05-14T07:53:55.926Z,12.9040
2023-05-14T07:54:56.977Z,13.0322
2023-05-14T07:55:58.225Z,13.1647
2023-05-14T07:56:59.082Z,13.0308
2023-05-14T07:58:00.158Z,12.7662
2023-05-14T07:59:01.115Z,12.8186
2023-05-14T08:00:02.156Z,12.7783
2023-05-14T08:01:03.179Z,12.7791
2023-05-14T08:02:04.276Z,12.9209
2023-05-14T08:03:05.456Z,12.9250
2023-05-14T08:04:06.384Z,12.8605
2023-05-14T08:05:07.317Z,13.0616
2023-05-14T08:06:08.298Z,12.9279
2023-05-14T08:07:09.411Z,13.0484
2023-05-14T08:08:10.395Z,12.9710
2023-05-14T08:09:11.395Z,12.7947
2023-05-14T08:10:12.489Z,12.8256
2023-05-14T08:11:13.477Z,12.6460
2023-05-14T08:12:14.552Z,12.5275
2023-05-14T08:13:15.576Z,12.5955
2023-05-14T08:14:16.575Z,12.3488
2023-05-14T08:15:17.623Z,12.2851
2023-05-14T08:16:18.660Z,12.1726
2023-05-14T08:17:19.753Z,12.2938
2023-05-14T08:18:20.721Z,12.2679
2023-05-14T08:19:21.797Z,12.2537
2023-05-14T08:20:23.058Z,12.4618
2023-05-14T08:21:23.836Z,12.7097
2023-05-14T08:22:24.899Z,12.8210
2023-05-14T08:23:25.985Z,12.8607
2023-05-14T08:24:26.899Z,12.7810
2023-05-14T08:25:27.933Z,12.7824
2023-05-14T08:26:28.980Z,12.8913
2023-05-14T08:27:30.056Z,13.0061
2023-05-14T08:28:31.119Z,12.7602
2023-05-14T08:29:32.097Z,12.7586
2023-05-14T08:30:33.162Z,12.8280
2023-05-14T08:31:34.155Z,12.9679
2023-05-14T08:32:35.244Z,12.8500
2023-05-14T08:33:36.264Z,12.8046
2023-05-14T08:34:37.297Z,12.8219
2023-05-14T08:35:38.321Z,12.6025
2023-05-14T08:36:39.388Z,12.5686
2023-05-14T08:37:40.383Z,12.7288
2023-05-14T08:38:41.433Z,12.7945
2023-05-14T08:39:42.582Z,12.7327
2023-05-14T08:40:43.497Z,12.7588
2023-05-14T08:41:44.543Z,12.6933
2023-05-14T08:42:45.611Z,12.7767
2023-05-14T08:43:46.616Z,12.7549
2023-05-14T08:44:47.638Z,12.8806
2023-05-14T08:45:48.660Z,12.8580
2023-05-14T08:46:49.677Z,13.1096
2023-05-14T08:47:50.991Z,13.2072
2023-05-14T08:48:51.828Z,13.3278
2023-05-14T08:49:52.885Z,13.3021
2023-05-14T08:50:53.885Z,13.1651
2023-05-14T08:51:54.895Z,13.1086
2023-05-14T08:52:55.885Z,13.3210
2023-05-14T08:53:57.004Z,13.3660
2023-05-14T08:54:58.005Z,13.2955
2023-05-14T08:55:59.064Z,13.2752
2023-05-14T08:57:00.046Z,13.6197
2023-05-14T08:58:01.109Z,13.5605
2023-05-14T08:59:02.266Z,13.7961
2023-05-14T09:00:03.299Z,13.8773
2023-05-14T09:01:04.399Z,13.9837
2023-05-14T09:02:26.259Z,13.7435
2023-05-14T09:03:06.460Z,14.0380
2023-05-14T09:04:07.468Z,14.1620
2023-05-14T09:05:08.571Z,13.8941
2023-05-14T09:06:09.545Z,13.7692
2023-05-14T09:07:10.532Z,14.0740
2023-05-14T09:08:11.571Z,13.7854
2023-05-14T09:09:12.650Z,13.8547
2023-05-14T09:10:13.668Z,14.1833
2023-05-14T09:11:14.755Z,14.0155
2023-05-14T09:12:15.733Z,14.0860
2023-05-14T09:13:16.757Z,13.8785
2023-05-14T09:14:17.753Z,14.3111
2023-05-14T09:15:18.996Z,14.2277
2023-05-14T09:16:20.057Z,14.2180
2023-05-14T09:17:21.052Z,14.0740
2023-05-14T09:18:21.996Z,13.7670
2023-05-14T09:19:23.155Z,13.7906
2023-05-14T09:20:24.286Z,13.5864
2023-05-14T09:21:25.164Z,13.4459
2023-05-14T09:22:26.135Z,13.5258
2023-05-14T09:23:27.289Z,13.6838
2023-05-14T09:24:28.214Z,13.7702
2023-05-14T09:25:29.390Z,13.5913
2023-05-14T09:26:30.343Z,13.6417
2023-05-14T09:27:31.331Z,13.6024
2023-05-14T09:28:32.354Z,13.6751
2023-05-14T09:29:33.443Z,13.7064
2023-05-14T09:30:34.506Z,13.6010
2023-05-14T09:31:35.568Z,13.6454
2023-05-14T09:32:36.512Z,13.7353
2023-05-14T09:33:37.663Z,13.7446
2023-05-14T09:34:38.581Z,13.2452
2023-05-14T09:35:39.713Z,13.4779
2023-05-14T09:36:40.715Z,13.5926
2023-05-14T09:37:41.710Z,13.7322
2023-05-14T09:38:42.714Z,13.8064
2023-05-14T09:39:43.842Z,13.8506
2023-05-14T09:40:44.929Z,13.5893
2023-05-14T09:41:45.917Z,13.6043
2023-05-14T09:42:46.869Z,13.7211
2023-05-14T09:43:48.003Z,13.6803
2023-05-14T09:44:48.973Z,13.5815
2023-05-14T09:45:50.080Z,13.8208
2023-05-14T09:46:51.108Z,13.8119
2023-05-14T09:47:52.181Z,13.7220
2023-05-14T09:48:53.095Z,13.5268
2023-05-14T09:49:54.175Z,13.5009
2023-05-14T09:50:55.214Z,13.4369
2023-05-14T09:51:56.282Z,13.5642
2023-05-14T09:52:57.293Z,13.7832
2023-05-14T09:53:58.279Z,13.8779
2023-05-14T09:54:59.310Z,13.8298
2023-05-14T09:56:00.414Z,13.7010
2023-05-14T09:57:01.413Z,13.6384
2023-05-14T09:58:02.450Z,13.6439
2023-05-14T09:59:03.494Z,13.5505
2023-05-14T10:00:04.527Z,13.7279
2023-05-14T10:01:05.676Z,13.8953
2023-05-14T10:02:06.656Z,13.7702
2023-05-14T10:03:07.701Z,13.4718
2023-05-14T10:04:08.734Z,13.4229
2023-05-14T10:05:09.775Z,13.2393
2023-05-14T10:06:10.794Z,13.1474
2023-05-14T10:07:11.791Z,13.1462
2023-05-14T10:08:12.824Z,12.9591
2023-05-14T10:09:14.056Z,13.0721
2023-05-14T10:10:14.860Z,13.2910
2023-05-14T10:11:16.006Z,13.4210
2023-05-14T10:12:17.072Z,13.3483
2023-05-14T10:13:17.982Z,13.4262
2023-05-14T10:14:19.020Z,13.4040
2023-05-14T10:15:20.029Z,13.1721
2023-05-14T10:16:21.169Z,13.3999
2023-05-14T10:17:22.149Z,13.3448
2023-05-14T10:18:23.174Z,13.2384
2023-05-14T10:19:24.342Z,13.1602
2023-05-14T10:20:25.482Z,13.0599
2023-05-14T10:21:26.359Z,13.1826
2023-05-14T10:22:27.370Z,13.3066
2023-05-14T10:23:28.311Z,13.2201
2023-05-14T10:24:29.353Z,13.1585
2023-05-14T10:25:30.453Z,13.1669
2023-05-14T10:26:31.527Z,13.1912
2023-05-14T10:27:32.510Z,13.2167
2023-05-14T10:28:33.531Z,13.0718
2023-05-14T10:29:34.573Z,13.2345
2023-05-14T10:30:35.593Z,13.4083
2023-05-14T10:31:36.850Z,13.4019
2023-05-14T10:32:37.730Z,13.4313
2023-05-14T10:33:38.745Z,13.4430
2023-05-14T10:34:39.691Z,13.3261
2023-05-14T10:35:40.752Z,13.3235
2023-05-14T10:36:41.789Z,13.1359
2023-05-14T10:37:42.897Z,13.0788
2023-05-14T10:38:43.898Z,13.0158
2023-05-14T10:39:44.872Z,13.2594
2023-05-14T10:40:45.905Z,13.3167
2023-05-14T10:41:46.953Z,13.4424
2023-05-14T10:42:48.031Z,13.5223
2023-05-14T10:43:49.117Z,13.5221
2023-05-14T10:44:50.032Z,13.4578
2023-05-14T10:45:51.084Z,13.2875
2023-05-14T10:46:52.170Z,13.2586
2023-05-14T10:47:53.272Z,13.0392
2023-05-14T10:48:54.294Z,12.9737
2023-05-14T10:49:55.129Z,12.9531
2023-05-14T10:50:56.192Z,13.2126
2023-05-14T10:51:57.236Z,13.2390
2023-05-14T10:52:58.336Z,13.3849
2023-05-14T10:53:59.294Z,13.4249
2023-05-14T10:55:02.879Z,13.2734
2023-05-14T10:56:01.377Z,13.2520
2023-05-14T10:57:02.389Z,13.1635
2023-05-14T10:58:03.456Z,13.3142
2023-05-14T10:59:04.463Z,13.5081
2023-05-14T11:00:05.482Z,13.7312
2023-05-14T11:01:06.553Z,14.0348
2023-05-14T11:02:07.724Z,14.1691
2023-05-14T11:03:08.675Z,14.1618
2023-05-14T11:04:09.675Z,13.9711
2023-05-14T11:05:10.645Z,13.7435
2023-05-14T11:06:11.691Z,13.9473
2023-05-14T11:07:12.690Z,14.0796
2023-05-14T11:08:13.798Z,14.1833
2023-05-14T11:09:14.797Z,14.8147
2023-05-14T11:10:15.797Z,15.2677
2023-05-14T11:11:16.818Z,15.3040
2023-05-14T11:12:17.852Z,15.4903
2023-05-14T11:13:18.981Z,15.3365
2023-05-14T11:14:19.955Z,15.6684
2023-05-14T11:15:20.977Z,15.6773
2023-05-14T11:16:23.734Z,15.1808
2023-05-14T11:17:23.069Z,15.0456
2023-05-14T11:18:24.101Z,14.8998
2023-05-14T11:19:25.180Z,14.7217
2023-05-14T11:20:26.336Z,14.5705
2023-05-14T11:21:27.232Z,14.4931
2023-05-14T11:22:28.190Z,14.4204
2023-05-14T11:23:29.315Z,14.5190
2023-05-14T11:24:30.429Z,14.3476
2023-05-14T11:25:31.388Z,14.2764
2023-05-14T11:26:32.452Z,14.2123
2023-05-14T11:27:33.396Z,14.1542
2023-05-14T11:28:34.660Z,14.1398
2023-05-14T11:29:35.500Z,14.2026
2023-05-14T11:30:36.536Z,14.2410
2023-05-14T11:31:37.595Z,14.2747
2023-05-14T11:32:38.681Z,14.2349
2023-05-14T11:33:39.659Z,14.2887
2023-05-14T11:34:40.726Z,14.2829
2023-05-14T11:35:41.755Z,14.4651
2023-05-14T11:36:42.720Z,14.6262
2023-05-14T11:37:43.759Z,14.5847
2023-05-14T11:38:44.816Z,14.4771
2023-05-14T11:39:45.842Z,14.3912
2023-05-14T11:40:46.897Z,14.5695
2023-05-14T11:41:47.921Z,14.4323
2023-05-14T11:42:48.955Z,14.6502
2023-05-14T11:43:49.959Z,14.6973
2023-05-14T11:44:51.017Z,14.6802
2023-05-14T11:45:52.124Z,14.8396
2023-05-14T11:46:53.136Z,14.7449
2023-05-14T11:47:54.272Z,14.5913
2023-05-14T11:48:55.332Z,14.5987
2023-05-14T11:49:56.330Z,14.7213
2023-05-14T11:50:57.440Z,14.6422
2023-05-14T11:51:58.507Z,14.7086
2023-05-14T11:52:59.477Z,14.7833
2023-05-14T11:54:00.482Z,14.9127
2023-05-14T11:55:01.577Z,14.9505
2023-05-14T11:56:02.598Z,14.7747
2023-05-14T11:57:03.629Z,14.9875
2023-05-14T11:58:04.593Z,14.9433
2023-05-14T11:59:05.708Z,14.9290
2023-05-14T12:00:06.755Z,14.9374
2023-05-14T12:01:07.833Z,14.8647
2023-05-14T12:02:08.841Z,14.9850
2023-05-14T12:03:09.910Z,14.8727
2023-05-14T12:04:10.992Z,14.7517
2023-05-14T12:05:11.859Z,14.7098
2023-05-14T12:06:12.934Z,14.5508
2023-05-14T12:07:14.030Z,14.2558
2023-05-14T12:08:14.958Z,14.2150
2023-05-14T12:09:16.028Z,13.8165
2023-05-14T12:10:17.084Z,13.6304
2023-05-14T12:11:18.152Z,13.5502
2023-05-14T12:12:19.190Z,13.3153
2023-05-14T12:13:20.204Z,13.2093
2023-05-14T12:14:21.228Z,13.0891
2023-05-14T12:15:22.263Z,12.9511
2023-05-14T12:16:23.446Z,12.8753
2023-05-14T12:17:24.519Z,12.7884
2023-05-14T12:18:25.486Z,12.6879
2023-05-14T12:19:26.510Z,12.5904
2023-05-14T12:20:27.536Z,12.6216
2023-05-14T12:21:28.548Z,12.5688
2023-05-14T12:22:29.616Z,12.4710
2023-05-14T12:23:30.613Z,12.5893
2023-05-14T12:24:31.629Z,12.5363